Time;durP1;ratioP1;P1;durP2;ratioP2;P2;SDS_P1;SDS_P2;PMS_P1;PMS_P2;Temp;Humidity;BMP_temperature;BMP_pressure;BME280_temperature;BME280_humidity;BME280_pressure;Samples;Min_cycle;Max_cycle;Signal;HPM_P1;HPM_P2
2022/12/21 00:01:20;;;;;;;45.22;27.05;;;;;;;8.21;100.00;101058.41;5054167;28;20151;-81
2022/12/21 00:03:46;;;;;;;45.60;27.65;;;;;;;8.04;100.00;101025.81;5054032;28;20386;-83
2022/12/21 00:06:12;;;;;;;45.42;27.30;;;;;;;8.24;100.00;101055.69;5053949;28;20047;-82
2022/12/21 00:08:41;;;;;;;47.28;26.80;;;;;;;8.19;100.00;101052.53;5054557;28;20033;-82
2022/12/21 00:11:07;;;;;;;44.90;26.50;;;;;;;8.22;100.00;101052.38;5054083;28;20021;-82
2022/12/21 00:13:32;;;;;;;44.35;27.90;;;;;;;7.91;100.00;101004.19;5053724;28;20025;-81
2022/12/21 00:16:00;;;;;;;47.75;28.30;;;;;;;8.17;100.00;101044.06;5053816;28;20070;-81
2022/12/21 00:18:25;;;;;;;48.70;27.20;;;;;;;8.11;100.00;101040.94;5052352;28;20033;-82
2022/12/21 00:21:21;;;;;;;47.40;28.10;;;;;;;8.21;100.00;101055.84;5053843;28;20021;-82
2022/12/21 00:23:47;;;;;;;50.17;28.23;;;;;;;8.18;100.00;101047.47;5031600;28;20476;-79
2022/12/21 00:26:14;;;;;;;46.13;28.23;;;;;;;8.19;100.00;101051.69;5015033;28;20034;-77
2022/12/21 00:28:40;;;;;;;45.70;27.65;;;;;;;8.12;100.00;101051.16;5011531;28;20030;-82
2022/12/21 00:31:13;;;;;;;49.92;28.48;;;;;;;8.19;100.00;101060.25;5011932;28;20092;-82
2022/12/21 00:33:40;;;;;;;49.03;28.10;;;;;;;8.11;100.00;101041.78;5011445;28;20066;-82
2022/12/21 00:36:07;;;;;;;49.10;28.80;;;;;;;8.18;100.00;101057.75;5011589;28;20474;-81
2022/12/21 00:38:33;;;;;;;51.65;28.80;;;;;;;8.18;100.00;101056.00;5011818;28;20073;-81
2022/12/21 00:41:02;;;;;;;50.25;29.88;;;;;;;8.12;100.00;101047.75;5011434;28;20049;-81
2022/12/21 00:43:28;;;;;;;46.78;28.40;;;;;;;8.07;100.00;101053.13;5011614;28;20041;-81
2022/12/21 00:45:53;;;;;;;51.60;28.90;;;;;;;8.14;100.00;101054.47;5011721;28;20393;-81
2022/12/21 00:48:19;;;;;;;52.95;29.50;;;;;;;8.07;100.00;101052.31;5011193;28;20037;-82
2022/12/21 00:50:44;;;;;;;50.50;29.10;;;;;;;8.15;100.00;101068.16;5011669;28;20105;-81
2022/12/21 00:53:09;;;;;;;51.22;28.90;;;;;;;8.15;100.00;101066.44;5011488;28;20563;-81
2022/12/21 00:55:35;;;;;;;50.65;28.42;;;;;;;8.05;100.00;101039.50;5011567;28;20061;-81
2022/12/21 00:58:01;;;;;;;49.15;28.33;;;;;;;8.07;100.00;101044.59;5011325;28;20184;-82
2022/12/21 01:00:26;;;;;;;51.28;29.40;;;;;;;8.15;100.00;101063.84;5025161;28;20033;-81
2022/12/21 01:02:52;;;;;;;54.28;28.80;;;;;;;8.03;100.00;101057.56;5033312;28;20152;-81
2022/12/21 01:05:18;;;;;;;54.22;29.60;;;;;;;7.99;100.00;101052.66;5033050;28;20049;-81
2022/12/21 01:07:43;;;;;;;54.78;29.70;;;;;;;8.12;100.00;101082.03;5033312;28;20029;-82
2022/12/21 01:10:09;;;;;;;50.70;29.38;;;;;;;8.07;100.00;101078.84;5033230;28;20021;-81
2022/12/21 01:12:35;;;;;;;45.03;27.27;;;;;;;8.10;100.00;101088.97;5033175;28;20053;-81
2022/12/21 01:15:00;;;;;;;52.58;30.10;;;;;;;7.97;100.00;101067.34;5033017;28;20061;-80
2022/12/21 01:17:26;;;;;;;52.35;30.27;;;;;;;8.09;100.00;101092.47;5033105;28;20037;-82
2022/12/21 01:19:51;;;;;;;56.78;33.58;;;;;;;8.06;100.00;101082.31;5033048;28;20036;-81
2022/12/21 01:22:16;;;;;;;56.28;30.77;;;;;;;8.03;100.00;101070.44;5033280;28;20054;-82
2022/12/21 01:24:42;;;;;;;52.25;31.15;;;;;;;8.07;100.00;101084.00;5033057;28;20101;-81
2022/12/21 01:27:07;;;;;;;54.33;29.63;;;;;;;8.10;100.00;101083.84;5030826;28;20041;-81
2022/12/21 01:29:32;;;;;;;51.58;28.85;;;;;;;8.09;100.00;101081.34;5032590;28;20025;-78
2022/12/21 01:31:58;;;;;;;56.13;30.83;;;;;;;8.05;100.00;101086.63;5033023;28;20052;-80
2022/12/21 01:34:24;;;;;;;51.08;30.63;;;;;;;8.05;100.00;101078.91;5033026;28;20021;-81
2022/12/21 01:36:49;;;;;;;51.83;28.85;;;;;;;8.05;100.00;101084.03;5032949;28;20025;-81
2022/12/21 01:39:15;;;;;;;53.65;30.08;;;;;;;7.97;100.00;101080.22;5033015;28;20049;-81
2022/12/21 01:41:40;;;;;;;52.60;30.45;;;;;;;7.84;100.00;101071.38;5032940;28;20021;-81
2022/12/21 01:44:49;;;;;;;50.42;29.20;;;;;;;7.98;100.00;101090.41;5031493;28;20488;-81
2022/12/21 01:47:21;;;;;;;48.83;29.73;;;;;;;8.02;100.00;101109.09;5032704;28;20481;-81
2022/12/21 01:49:59;;;;;;;55.28;30.75;;;;;;;7.94;100.00;101100.91;5032737;28;20392;-81
2022/12/21 01:52:24;;;;;;;51.42;29.80;;;;;;;7.95;100.00;101100.00;5033476;28;20026;-82
2022/12/21 01:54:56;;;;;;;54.60;30.80;;;;;;;7.90;100.00;101097.66;5036847;28;20057;-81
2022/12/21 01:57:22;;;;;;;;;;;;;;;8.03;100.00;101111.59;5035030;28;20048;-81
2022/12/21 01:59:52;;;;;;;52.25;28.88;;;;;;;7.88;100.00;101096.91;5036322;28;19916;-81
2022/12/21 02:02:21;;;;;;;51.30;29.95;;;;;;;7.95;100.00;101093.09;5036808;28;20388;-80
2022/12/21 02:04:47;;;;;;;56.70;30.77;;;;;;;7.91;100.00;101081.31;5036705;28;20099;-80
2022/12/21 02:07:12;;;;;;;50.30;29.60;;;;;;;7.95;100.00;101082.81;5036348;28;20442;-81
2022/12/21 02:09:38;;;;;;;50.92;29.38;;;;;;;7.97;100.00;101091.31;5036525;28;20030;-81
2022/12/21 02:12:07;;;;;;;52.13;29.95;;;;;;;7.96;100.00;101087.09;5036247;28;20040;-78
2022/12/21 02:14:37;;;;;;;49.30;28.92;;;;;;;7.87;100.00;101077.25;5036030;28;20022;-80
2022/12/21 02:17:32;;;;;;;51.17;27.55;;;;;;;7.95;100.00;101085.41;5036214;28;20502;-81
2022/12/21 02:20:00;;;;;;;48.25;28.45;;;;;;;7.94;100.00;101093.19;5036381;28;20476;-82
2022/12/21 02:22:54;;;;;;;49.25;28.38;;;;;;;7.96;100.00;101089.66;5034995;28;20032;-78
2022/12/21 02:25:41;;;;;;;45.60;27.20;;;;;;;7.95;100.00;101092.28;5035950;28;20373;-81
2022/12/21 02:28:24;;;;;;;42.97;25.67;;;;;;;7.93;100.00;101091.53;5035834;28;20056;-81
2022/12/21 02:31:11;;;;;;;46.45;26.52;;;;;;;7.93;100.00;101083.81;5034815;28;20108;-81
2022/12/21 02:33:56;;;;;;;48.13;26.83;;;;;;;7.91;100.00;101086.47;5035982;28;20120;-78
2022/12/21 02:36:31;;;;;;;45.45;25.30;;;;;;;7.71;100.00;101055.72;5036080;28;20143;-78
2022/12/21 02:39:02;;;;;;;42.50;25.20;;;;;;;7.89;100.00;101087.44;5035796;28;20083;-79
2022/12/21 02:41:39;;;;;;;50.95;29.10;;;;;;;7.93;100.00;101073.53;5035891;28;20037;-80
2022/12/21 02:44:14;;;;;;;46.78;26.65;;;;;;;7.76;100.00;101057.16;5035937;28;20053;-81
2022/12/21 02:46:57;;;;;;;44.33;26.38;;;;;;;7.88;100.00;101066.06;5033756;28;20060;-82
2022/12/21 02:49:25;;;;;;;49.75;27.25;;;;;;;7.89;100.00;101077.16;5035817;28;20049;-81
2022/12/21 02:52:13;;;;;;;51.10;29.10;;;;;;;7.89;100.00;101084.88;5035749;28;20036;-82
2022/12/21 02:54:39;;;;;;;55.45;29.33;;;;;;;7.87;100.00;101091.84;5035705;28;20061;-80
2022/12/21 02:57:05;;;;;;;52.63;30.08;;;;;;;7.83;100.00;101086.00;5035521;28;20095;-81
2022/12/21 02:59:37;;;;;;;55.33;28.90;;;;;;;7.61;100.00;101042.47;5035427;28;20473;-81
2022/12/21 03:02:05;;;;;;;51.88;29.95;;;;;;;7.86;100.00;101074.72;5035496;28;20488;-82
2022/12/21 03:04:36;;;;;;;54.40;31.70;;;;;;;7.83;100.00;101072.31;5035182;28;20098;-80
2022/12/21 03:07:11;;;;;;;57.13;30.52;;;;;;;7.81;100.00;101074.13;5035311;28;20025;-81
2022/12/21 03:09:50;;;;;;;56.60;30.38;;;;;;;7.80;100.00;101060.44;5035322;28;20060;-81
2022/12/21 03:12:27;;;;;;;57.28;31.83;;;;;;;7.81;100.00;101061.25;5035365;28;20025;-81
2022/12/21 03:15:29;;;;;;;53.28;30.52;;;;;;;7.79;100.00;101066.47;5035140;28;20022;-79
2022/12/21 03:18:13;;;;;;;57.30;30.52;;;;;;;7.75;100.00;101072.66;5034968;28;20056;-80
2022/12/21 03:20:44;;;;;;;58.70;32.20;;;;;;;7.76;100.00;101069.19;5033882;28;20029;-79
2022/12/21 03:24:00;;;;;;;56.83;32.45;;;;;;;7.78;100.00;101066.56;5035165;28;20458;-80
2022/12/21 03:26:37;;;;;;;57.90;31.48;;;;;;;7.76;100.00;101066.59;4974258;28;20541;-79
2022/12/21 03:29:04;;;;;;;62.22;33.45;;;;;;;7.78;100.00;101066.56;4974285;28;20033;-80
2022/12/21 03:31:37;;;;;;;59.72;35.08;;;;;;;7.77;100.00;101060.59;4974069;28;20109;-81
2022/12/21 03:34:22;;;;;;;59.30;32.85;;;;;;;7.65;100.00;101038.00;4974170;28;20030;-81
2022/12/21 03:36:55;;;;;;;61.08;34.00;;;;;;;7.75;100.00;101057.22;4973959;28;20050;-81
2022/12/21 03:39:23;;;;;;;59.97;34.63;;;;;;;7.74;100.00;101051.25;4974201;28;20027;-80
2022/12/21 03:42:08;;;;;;;63.80;34.65;;;;;;;7.75;100.00;101054.66;4973981;28;20031;-78
2022/12/21 03:44:40;;;;;;;62.20;34.00;;;;;;;7.61;100.00;101039.06;4974062;28;20039;-80
2022/12/21 03:47:13;;;;;;;63.33;33.75;;;;;;;7.75;100.00;101064.94;4973802;28;20019;-81
2022/12/21 03:49:44;;;;;;;64.00;34.30;;;;;;;7.68;100.00;101059.28;4973595;28;20039;-81
2022/12/21 03:52:12;;;;;;;;;;;;;;;7.78;100.00;101069.13;4974150;28;20062;-81
2022/12/21 03:54:53;;;;;;;67.00;34.78;;;;;;;7.70;100.00;101051.50;4973801;28;20286;-81
2022/12/21 03:57:20;;;;;;;61.90;35.17;;;;;;;7.60;100.00;101040.81;4973357;28;20456;-82
2022/12/21 03:59:50;;;;;;;68.40;36.50;;;;;;;7.72;100.00;101050.50;4973529;28;20031;-81
2022/12/21 04:02:20;;;;;;;64.57;34.17;;;;;;;7.72;100.00;101045.38;4990438;28;20111;-81
2022/12/21 04:05:03;;;;;;;68.72;36.35;;;;;;;7.73;100.00;101052.16;5034076;28;20045;-81
2022/12/21 04:07:32;;;;;;;66.78;35.22;;;;;;;7.58;100.00;101031.53;5034330;28;20036;-81
2022/12/21 04:10:02;;;;;;;67.00;35.88;;;;;;;7.64;100.00;101054.34;5034034;28;20520;-81
2022/12/21 04:12:37;;;;;;;66.20;37.25;;;;;;;7.69;100.00;101057.53;5034483;28;20026;-79
2022/12/21 04:15:25;;;;;;;65.18;35.58;;;;;;;7.60;100.00;101033.09;5033928;28;20109;-81
2022/12/21 04:17:52;;;;;;;65.20;35.17;;;;;;;7.48;100.00;101020.84;5033663;28;20037;-81
2022/12/21 04:20:23;;;;;;;61.65;35.30;;;;;;;7.67;100.00;101046.47;5035573;28;20025;-80
2022/12/21 04:28:32;;;;;;;60.25;32.78;;;;;;;7.63;100.00;101050.09;4992779;28;20220;-81
2022/12/21 04:31:00;;;;;;;61.60;33.15;;;;;;;7.58;100.00;101042.63;4992336;28;20034;-81
2022/12/21 04:33:27;;;;;;;63.40;33.80;;;;;;;7.61;100.00;101050.19;4992492;28;20498;-81
2022/12/21 04:38:41;;;;;;;60.97;34.08;;;;;;;7.49;100.00;101032.78;4992763;28;20076;-80
2022/12/21 04:41:06;;;;;;;61.95;33.85;;;;;;;7.63;100.00;101055.25;4992326;28;20031;-80
2022/12/21 04:43:38;;;;;;;60.70;33.45;;;;;;;7.63;100.00;101047.53;4992165;28;20149;-80
2022/12/21 04:46:06;;;;;;;58.85;32.47;;;;;;;7.50;100.00;101029.31;4992044;28;20462;-81
2022/12/21 04:48:32;;;;;;;57.75;32.22;;;;;;;7.57;100.00;101038.41;4992086;28;20042;-81
2022/12/21 04:51:09;;;;;;;57.92;33.97;;;;;;;7.56;100.00;101035.88;4988265;28;20056;-81
2022/12/21 04:53:35;;;;;;;56.95;32.85;;;;;;;7.53;100.00;101036.03;5011667;28;20030;-80
2022/12/21 04:56:00;;;;;;;57.78;31.80;;;;;;;7.53;100.00;101044.56;5011529;28;20044;-81
2022/12/21 04:58:26;;;;;;;51.03;30.70;;;;;;;7.43;100.00;101027.91;5011582;28;20477;-81
2022/12/21 05:00:51;;;;;;;52.13;29.83;;;;;;;7.45;100.00;101033.81;5018076;28;20120;-80
2022/12/21 05:03:19;;;;;;;50.78;29.02;;;;;;;7.37;100.00;101018.75;5032855;28;20496;-80
2022/12/21 05:05:44;;;;;;;50.70;29.38;;;;;;;7.46;100.00;101031.16;5033367;28;20083;-81
2022/12/21 05:08:10;;;;;;;49.75;29.98;;;;;;;7.49;100.00;101043.06;5033331;28;20021;-81
2022/12/21 05:10:35;;;;;;;47.17;29.20;;;;;;;7.48;100.00;101039.66;5033318;28;20021;-80
2022/12/21 05:13:01;;;;;;;46.70;28.48;;;;;;;7.47;100.00;101024.28;5032826;28;20473;-82
2022/12/21 05:15:26;;;;;;;46.15;27.33;;;;;;;7.19;100.00;100984.50;5033574;28;20018;-80
2022/12/21 05:17:51;;;;;;;48.53;28.20;;;;;;;7.45;100.00;101033.81;5032891;28;20029;-80
2022/12/21 05:20:17;;;;;;;47.38;27.00;;;;;;;7.46;100.00;101041.44;5033066;28;20461;-80
2022/12/21 05:22:46;;;;;;;45.65;26.98;;;;;;;7.44;100.00;101050.13;5033332;28;20065;-78
2022/12/21 05:25:12;;;;;;;42.95;26.67;;;;;;;7.07;100.00;100990.16;5033197;28;20473;-78
2022/12/21 05:27:37;;;;;;;41.78;26.50;;;;;;;7.41;100.00;101050.28;5032582;28;20087;-77
2022/12/21 05:30:04;;;;;;;41.90;25.42;;;;;;;7.34;100.00;101031.75;5035951;28;20080;-79
2022/12/21 05:32:29;;;;;;;43.72;25.10;;;;;;;7.27;100.00;101024.38;5036910;28;20427;-80
2022/12/21 05:34:55;;;;;;;41.13;24.45;;;;;;;7.31;100.00;101024.19;5037041;28;20025;-80
2022/12/21 05:37:20;;;;;;;37.13;23.92;;;;;;;7.33;100.00;101031.81;5036908;28;20380;-81
2022/12/21 05:39:45;;;;;;;38.40;22.48;;;;;;;7.21;100.00;101004.13;5035502;28;20060;-81
2022/12/21 05:42:10;;;;;;;36.15;22.60;;;;;;;7.27;100.00;101030.34;5036807;28;20388;-81
2022/12/21 05:44:36;;;;;;;38.60;22.58;;;;;;;7.20;100.00;101036.69;5036802;28;20488;-81
2022/12/21 05:47:01;;;;;;;35.15;21.95;;;;;;;6.93;100.00;101010.53;5052182;28;20025;-80
2022/12/21 05:49:26;;;;;;;34.08;21.77;;;;;;;7.09;100.00;101039.75;5036790;28;20037;-81
2022/12/21 05:51:52;;;;;;;34.78;21.80;;;;;;;7.11;100.00;101031.97;5036836;28;20029;-81
2022/12/21 05:54:17;;;;;;;34.40;21.90;;;;;;;7.04;100.00;101015.16;5036854;28;20029;-81
2022/12/21 05:56:42;;;;;;;36.45;22.02;;;;;;;7.08;100.00;101020.13;5036574;28;20136;-81
2022/12/21 05:59:08;;;;;;;31.98;20.42;;;;;;;6.88;100.00;101007.31;5036614;28;20025;-81
2022/12/21 06:01:34;;;;;;;36.53;20.33;;;;;;;6.96;100.00;101023.22;5036654;28;20033;-81
2022/12/21 06:03:59;;;;;;;31.58;20.10;;;;;;;6.88;100.00;100999.59;5036207;28;20142;-80
2022/12/21 06:06:24;;;;;;;33.60;20.17;;;;;;;6.95;100.00;101021.53;5036474;28;20045;-80
2022/12/21 06:08:50;;;;;;;30.80;19.27;;;;;;;6.92;100.00;101020.84;5036506;28;20579;-81
2022/12/21 06:11:18;;;;;;;32.08;19.70;;;;;;;6.94;100.00;101021.63;5036540;28;20035;-81
2022/12/21 06:13:43;;;;;;;34.92;20.05;;;;;;;6.92;100.00;101018.28;5034809;28;20040;-81
2022/12/21 06:16:12;;;;;;;35.80;20.30;;;;;;;6.88;100.00;101015.00;5036113;28;20033;-81
2022/12/21 06:18:38;;;;;;;33.83;20.10;;;;;;;6.76;100.00;100990.72;5036512;28;20391;-81
2022/12/21 06:21:04;;;;;;;33.20;20.02;;;;;;;6.86;100.00;101009.13;5036463;28;20021;-82
2022/12/21 06:23:29;;;;;;;33.75;20.45;;;;;;;6.92;100.00;101020.84;5036323;28;20025;-81
2022/12/21 06:25:56;;;;;;;33.60;20.83;;;;;;;6.72;100.00;100993.50;5036029;28;20025;-81
2022/12/21 06:28:23;;;;;;;32.72;19.30;;;;;;;6.90;100.00;101029.47;5036391;28;20104;-80
2022/12/21 06:30:50;;;;;;;33.35;20.38;;;;;;;6.65;100.00;100969.00;5036221;28;20029;-81
2022/12/21 06:33:16;;;;;;;32.47;19.35;;;;;;;6.96;100.00;101018.06;5035950;28;20022;-81
2022/12/21 06:35:41;;;;;;;29.42;18.13;;;;;;;6.69;100.00;100993.66;5036043;28;20029;-81
2022/12/21 06:38:07;;;;;;;30.40;18.65;;;;;;;6.88;100.00;101031.28;5034063;28;20036;-81
2022/12/21 06:40:32;;;;;;;27.98;17.40;;;;;;;6.87;100.00;101036.44;5036173;28;20032;-81
2022/12/21 06:42:57;;;;;;;29.88;17.58;;;;;;;6.88;100.00;101030.41;5051509;28;20033;-81
2022/12/21 06:45:23;;;;;;;35.50;18.85;;;;;;;6.62;100.00;100987.94;5035746;28;20017;-81
2022/12/21 06:47:54;;;;;;;29.67;17.45;;;;;;;6.79;100.00;101010.31;5035974;28;20468;-77
2022/12/21 06:50:22;;;;;;;30.67;16.80;;;;;;;6.72;100.00;101004.59;5035690;28;20603;-81
2022/12/21 06:52:49;;;;;;;31.38;17.15;;;;;;;6.82;100.00;101021.28;5035824;28;20120;-83
2022/12/21 06:55:15;;;;;;;28.05;16.95;;;;;;;6.78;100.00;101024.84;5034522;28;20040;-78
2022/12/21 06:57:41;;;;;;;24.40;15.63;;;;;;;6.70;100.00;101011.53;5035525;28;20060;-82
2022/12/21 07:00:09;;;;;;;28.55;16.20;;;;;;;6.75;100.00;101019.88;5034445;28;20064;-81
2022/12/21 07:02:34;;;;;;;30.23;15.80;;;;;;;6.76;100.00;101030.97;5035569;28;20082;-83
2022/12/21 07:05:00;;;;;;;29.60;16.70;;;;;;;6.69;100.00;101022.72;5035333;28;20157;-82
2022/12/21 07:07:25;;;;;;;26.05;16.25;;;;;;;6.83;100.00;101053.72;5035357;28;20017;-82
2022/12/21 07:09:50;;;;;;;28.90;16.33;;;;;;;6.81;100.00;101050.41;5033898;28;20033;-83
2022/12/21 07:12:16;;;;;;;27.88;15.25;;;;;;;6.70;100.00;101024.38;5035385;28;20029;-83
2022/12/21 07:14:41;;;;;;;27.63;14.50;;;;;;;6.77;100.00;101038.59;5035308;28;20075;-83
2022/12/21 07:17:06;;;;;;;26.67;13.93;;;;;;;6.64;100.00;101027.19;5035179;28;20056;-83
2022/12/21 07:19:32;;;;;;;24.80;14.10;;;;;;;6.54;100.00;101024.19;5035027;28;20048;-83
2022/12/21 07:21:57;;;;;;;24.45;12.57;;;;;;;6.37;100.00;101018.13;5035131;28;20469;-81
2022/12/21 07:24:22;;;;;;;22.67;13.32;;;;;;;6.34;100.00;101039.59;5035183;28;20080;-78
2022/12/21 07:26:48;;;;;;;25.80;12.93;;;;;;;6.15;100.00;101028.44;5035156;28;20025;-82
2022/12/21 07:29:13;;;;;;;23.25;13.30;;;;;;;5.89;100.00;100998.72;5035431;28;20029;-81
2022/12/21 07:31:39;;;;;;;25.40;14.20;;;;;;;6.20;100.00;101055.56;5034867;28;20428;-83
2022/12/21 07:34:04;;;;;;;22.45;12.82;;;;;;;6.24;100.00;101056.28;5051569;28;20029;-76
2022/12/21 07:36:29;;;;;;;25.60;13.80;;;;;;;6.09;100.00;101023.56;5054452;28;20029;-80
2022/12/21 07:38:55;;;;;;;25.38;13.98;;;;;;;6.30;100.00;101063.72;5054789;28;20134;-80
2022/12/21 07:41:21;;;;;;;24.05;12.63;;;;;;;6.31;100.00;101068.78;5054556;28;20366;-80
2022/12/21 07:43:47;;;;;;;23.48;12.55;;;;;;;6.32;100.00;101073.00;5054609;28;20116;-83
2022/12/21 07:46:13;;;;;;;17.98;11.02;;;;;;;6.36;100.00;101073.72;5054529;28;20499;-82
2022/12/21 07:48:38;;;;;;;25.27;11.57;;;;;;;6.24;100.00;101054.53;5054290;28;20060;-82
2022/12/21 07:51:05;;;;;;;20.92;10.73;;;;;;;6.44;100.00;101096.50;5053624;28;20064;-82
2022/12/21 07:53:30;;;;;;;18.95;9.93;;;;;;;6.46;100.00;101100.66;5054440;28;20036;-82
2022/12/21 07:56:01;;;;;;;20.05;10.55;;;;;;;6.47;100.00;101106.63;5054477;28;20469;-82
2022/12/21 07:58:27;;;;;;;18.33;9.95;;;;;;;6.42;100.00;101100.84;5054675;28;20025;-80
2022/12/21 08:00:52;;;;;;;20.05;10.13;;;;;;;6.36;100.00;101081.41;5054957;28;20040;-82
2022/12/21 08:03:18;;;;;;;20.30;10.43;;;;;;;6.52;100.00;101102.13;5053839;28;20082;-86
2022/12/21 08:05:43;;;;;;;22.65;11.07;;;;;;;6.45;100.00;101091.28;5054230;28;20025;-83
2022/12/21 08:08:08;;;;;;;22.30;10.85;;;;;;;6.52;100.00;101105.53;5054204;28;20102;-85
2022/12/21 08:10:34;;;;;;;19.90;11.63;;;;;;;6.50;100.00;101107.34;5054358;28;20021;-82
2022/12/21 08:12:59;;;;;;;20.92;11.23;;;;;;;6.43;100.00;101087.13;5054160;28;20100;-82
2022/12/21 08:15:25;;;;;;;17.77;11.38;;;;;;;6.39;100.00;101089.00;5054231;28;20484;-81
2022/12/21 08:17:53;;;;;;;18.80;10.68;;;;;;;6.23;100.00;101067.44;5053748;28;20037;-81
2022/12/21 08:20:19;;;;;;;24.92;12.13;;;;;;;6.12;100.00;101055.06;5052530;28;20032;-81
2022/12/21 08:22:45;;;;;;;21.80;11.07;;;;;;;6.32;100.00;101088.41;5054108;28;20024;-81
2022/12/21 08:25:10;;;;;;;23.13;11.80;;;;;;;6.23;100.00;101080.25;5053958;28;20117;-82
2022/12/21 08:27:35;;;;;;;23.40;12.00;;;;;;;6.19;100.00;101064.13;5053896;28;20032;-81
2022/12/21 08:30:01;;;;;;;18.73;11.27;;;;;;;6.47;100.00;101107.44;5053863;28;20033;-82
2022/12/21 08:32:26;;;;;;;23.90;13.25;;;;;;;6.50;100.00;101104.78;5053762;28;20039;-81
2022/12/21 08:34:51;;;;;;;21.10;12.65;;;;;;;6.56;100.00;101096.81;5054246;28;20056;-81
2022/12/21 08:37:17;;;;;;;22.65;12.35;;;;;;;6.39;100.00;101058.22;5053695;28;20408;-81
2022/12/21 08:39:43;;;;;;;24.05;12.02;;;;;;;6.49;100.00;101067.19;5053940;28;20429;-82
2022/12/21 08:42:09;;;;;;;24.45;12.80;;;;;;;6.68;100.00;101100.56;5053563;28;20091;-81
2022/12/21 08:44:34;;;;;;;24.88;11.70;;;;;;;6.59;100.00;101068.47;5053486;28;20053;-78
2022/12/21 08:46:59;;;;;;;25.77;13.50;;;;;;;6.77;100.00;101099.34;5053556;28;20048;-80
2022/12/21 08:49:24;;;;;;;22.08;12.15;;;;;;;6.80;100.00;101102.66;5053385;28;20503;-81
2022/12/21 08:51:50;;;;;;;23.83;12.23;;;;;;;6.83;100.00;101104.25;5053516;28;20380;-81
2022/12/21 08:54:15;;;;;;;21.98;12.50;;;;;;;6.80;100.00;101091.53;5053403;28;20420;-83
2022/12/21 08:56:41;;;;;;;23.17;12.60;;;;;;;6.90;100.00;101106.47;5051511;28;20045;-81
2022/12/21 08:59:08;;;;;;;24.40;12.70;;;;;;;6.74;100.00;101068.69;5053207;28;20095;-82
2022/12/21 09:01:34;;;;;;;26.88;12.88;;;;;;;6.96;100.00;101095.09;5053332;28;20082;-82
2022/12/21 09:04:00;;;;;;;26.77;14.48;;;;;;;6.98;100.00;101100.16;5053036;28;20091;-82
2022/12/21 09:06:26;;;;;;;28.08;12.90;;;;;;;7.04;100.00;101116.13;5053019;28;20044;-82
2022/12/21 09:08:51;;;;;;;27.42;13.70;;;;;;;7.06;100.00;101111.75;5053469;28;20025;-83
2022/12/21 09:11:19;;;;;;;23.58;12.75;;;;;;;6.86;100.00;101069.00;5053334;28;20020;-85
2022/12/21 09:13:45;;;;;;;27.98;14.32;;;;;;;7.01;100.00;101098.31;5052972;28;20025;-82
2022/12/21 09:16:20;;;;;;;25.92;14.70;;;;;;;7.12;100.00;101103.81;5052857;28;20535;-84
2022/12/21 09:18:47;;;;;;;25.92;15.35;;;;;;;7.16;100.00;101092.47;5052969;28;20499;-85
2022/12/21 09:21:15;;;;;;;26.88;14.45;;;;;;;7.03;100.00;101060.56;5051160;28;20079;-84
2022/12/21 09:23:41;;;;;;;28.38;15.70;;;;;;;7.26;100.00;101090.34;5053015;28;20036;-83
2022/12/21 09:26:07;;;;;;;27.17;16.15;;;;;;;7.13;100.00;101072.09;5053001;28;20488;-83
2022/12/21 09:28:33;;;;;;;27.83;16.15;;;;;;;7.18;100.00;101070.16;5052951;28;20514;-81
2022/12/21 09:31:13;;;;;;;27.58;16.63;;;;;;;7.40;100.00;101102.56;5053093;28;20029;-83
2022/12/21 09:33:39;;;;;;;32.30;17.90;;;;;;;7.37;100.00;101087.28;5052947;28;20063;-83
2022/12/21 09:36:06;;;;;;;35.80;18.30;;;;;;;7.34;100.00;101080.56;5052996;28;20028;-85
2022/12/21 09:38:32;;;;;;;30.92;18.38;;;;;;;7.56;100.00;101108.66;5052713;28;20025;-84
2022/12/21 09:41:20;;;;;;;29.70;19.73;;;;;;;7.67;100.00;101108.16;5050961;28;20040;-83
2022/12/21 09:43:54;;;;;;;30.92;18.45;;;;;;;7.52;100.00;101075.47;5030918;28;20156;-81
2022/12/21 09:46:19;;;;;;;29.75;18.30;;;;;;;7.40;100.00;101052.03;5030893;28;20050;-82
2022/12/21 09:48:58;;;;;;;31.67;19.25;;;;;;;7.63;100.00;101088.66;5030844;28;20029;-86
2022/12/21 09:51:26;;;;;;;30.77;18.20;;;;;;;7.71;100.00;101100.25;5030762;28;20034;-84
2022/12/21 09:54:06;;;;;;;32.35;18.92;;;;;;;7.71;100.00;101089.16;5030221;28;20025;-81
2022/12/21 09:56:38;;;;;;;33.47;19.63;;;;;;;7.67;100.00;101098.75;5030787;28;20450;-81
2022/12/21 09:59:07;;;;;;;;;;;;;;;7.86;100.00;101115.84;5031155;28;20469;-81
2022/12/21 10:01:51;;;;;;;35.00;19.38;;;;;;;7.87;100.00;101115.81;5030549;28;19956;-81
2022/12/21 10:04:40;;;;;;;32.25;18.23;;;;;;;7.82;100.00;101099.75;5030449;28;20108;-81
2022/12/21 10:07:27;;;;;;;34.10;18.67;;;;;;;7.97;100.00;101118.78;5030185;28;20056;-80
2022/12/21 10:09:55;;;;;;;33.05;17.15;;;;;;;8.00;100.00;101116.88;5030449;28;20091;-80
2022/12/21 10:12:39;;;;;;;31.17;17.33;;;;;;;8.08;100.00;101113.94;5030414;28;20032;-80
2022/12/21 10:15:17;;;;;;;30.13;17.85;;;;;;;8.11;100.00;101110.41;5033563;28;20065;-80
2022/12/21 10:17:47;;;;;;;29.58;16.35;;;;;;;8.13;100.00;101108.56;5034094;28;20096;-81
2022/12/21 10:20:32;;;;;;;28.92;15.55;;;;;;;8.08;100.00;101103.66;5025628;28;20036;-80
2022/12/21 10:23:02;;;;;;;29.25;15.93;;;;;;;7.90;100.00;101077.09;5055886;28;20028;-81
2022/12/21 10:25:54;;;;;;;30.80;15.38;;;;;;;8.13;100.00;101113.72;5056050;28;20033;-80
2022/12/21 10:28:31;;;;;;;26.30;14.88;;;;;;;8.04;100.00;101104.69;5033900;28;20477;-80
2022/12/21 10:31:04;;;;;;;27.42;14.43;;;;;;;7.92;100.00;101082.97;5033866;28;20596;-81
2022/12/21 10:33:30;;;;;;;26.77;13.88;;;;;;;8.07;100.00;101112.28;5034356;28;20436;-88
2022/12/21 10:36:00;;;;;;;27.52;13.23;;;;;;;8.05;100.00;101108.94;5033799;28;20126;-81
2022/12/21 10:38:31;;;;;;;26.52;14.40;;;;;;;7.86;100.00;101080.69;5033652;28;20037;-82
2022/12/21 10:40:57;;;;;;;30.05;13.48;;;;;;;7.74;100.00;101063.28;5033869;28;20521;-83
2022/12/21 10:43:23;;;;;;;28.20;14.20;;;;;;;8.03;100.00;101109.00;5017250;28;20037;-84
2022/12/21 10:45:49;;;;;;;27.85;13.23;;;;;;;8.01;100.00;101092.84;5033802;28;20044;-84
2022/12/21 10:48:14;;;;;;;23.90;13.50;;;;;;;7.96;100.00;101070.81;5033636;28;20152;-82
2022/12/21 10:50:47;;;;;;;25.92;13.85;;;;;;;8.08;100.00;101080.53;5032672;28;20431;-82
2022/12/21 10:53:27;;;;;;;33.03;13.35;;;;;;;7.85;100.00;101047.34;5033274;28;20033;-82
2022/12/21 10:55:59;;;;;;;29.02;13.63;;;;;;;8.01;100.00;101077.41;5033554;28;20034;-84
2022/12/21 10:58:28;;;;;;;24.75;13.80;;;;;;;7.87;100.00;101068.69;5789400;22;20500;-83
2022/12/21 11:01:01;;;;;;;26.73;14.48;;;;;;;7.89;100.00;101072.03;5055586;28;20469;-81
2022/12/21 11:03:34;;;;;;;24.85;14.05;;;;;;;7.87;100.00;101066.97;5054171;28;20115;-81
2022/12/21 11:06:12;;;;;;;35.20;15.30;;;;;;;7.74;100.00;101058.97;5055295;28;20096;-81
2022/12/21 11:08:49;;;;;;;27.08;15.90;;;;;;;7.68;100.00;101055.88;5055082;28;20025;-81
2022/12/21 11:11:27;;;;;;;26.95;14.57;;;;;;;7.81;100.00;101071.56;5055227;28;20024;-82
2022/12/21 11:14:16;;;;;;;29.50;15.55;;;;;;;7.82;100.00;101068.91;5055278;28;20100;-83
2022/12/21 11:16:44;;;;;;;25.80;14.80;;;;;;;7.71;100.00;101050.59;5033236;28;20137;-84
2022/12/21 11:19:18;;;;;;;28.88;15.32;;;;;;;7.84;100.00;101084.25;5032977;28;20087;-81
2022/12/21 11:21:52;;;;;;;27.13;14.68;;;;;;;7.72;100.00;101057.38;5016559;28;20509;-83
2022/12/21 11:24:25;;;;;;;26.13;15.68;;;;;;;7.80;100.00;101064.75;5016007;28;20095;-83
2022/12/21 11:26:57;;;;;;;28.50;15.63;;;;;;;7.73;100.00;101059.06;5031996;28;20034;-80
2022/12/21 11:29:41;;;;;;;29.33;15.93;;;;;;;7.93;100.00;101078.66;5032951;28;20029;-81